Etusivu
METAR-TAF:

METAR-TAF

Lentoasemat :

Šiauliai, Liettua

Leveyspiiri: 55-53-38N, Pituuspiiri: 023-23-42E, korkeus merenpinnasta: 135 m

Tämänhetkinen sää

Tämä raportti tehtiin 14 minuuttia sitten, kello 06.20 UTC
Tuuli 13 kn idästä/kaakosta
Lämpötila 2°C
Kosteus 93%
Ilmanpaine 1029 hPa
Näkyvyys: 6000 m
Pilvistä 600 ft:n korkeudessa

METAR: EYSA 210620Z 11013KT 6000 OVC006 02/01 Q1029 R14L/19//95 R14R/19//95 YLO1 NOSIG

Aika: 08:34 (06:34 UTC)

Sääennuste

Tämä raportti tehtiin 1 tunti ja 33 minuuttia sitten, kello 05.01 UTC
Ennuste voimassa 21. päivästä klo 06 UTC - 21. päivään klo 15 UTC
Tuuli 17 kn idästä/kaakosta
Näkyvyys: 9000 m
Pilvistä 500 ft:n korkeudessa
Tulossa
21. päivästä klo 07 UTC - 21. päivään klo 09 UTC
Pilvistä 900 ft:n korkeudessa

TAF: EYSA 210501Z 2106/2115 12017KT 9000 OVC005 BECMG 2107/2109 OVC009

Säähavainnot ja -ennusteet yli 4000 lentoasemalta (METAR- ja TAF-raportit).

Käytössä olevat sääasemat on merkitty karttaan keltaisilla ja punaisilla pisteillä.

Aseta hiiri pisteen päälle nähdäksesi sääaseman nimen.

Klikkaa sitten nähdäksesi säähavainnot ja -ennusteet.

Kartan vaihtaminen: klikkaa mustalla rastilla varustettuja vihreitä pisteitä, niin voit zoomata sisään; viivalla varustettua vihreää pistettä, niin voit zoomata ulos tai vihreitä nuolia, niin pääset viereisille kartoille.


METAR-TAF: